sensor_id;sensor_type;location;lat;lon;timestamp;pressure;altitude;pressure_sealevel;temperature
11240;BMP180;5677;48.488;13.436;2022-07-01T00:02:22;97340.00;;;23.80
11240;BMP180;5677;48.488;13.436;2022-07-01T00:04:50;97341.00;;;23.80
11240;BMP180;5677;48.488;13.436;2022-07-01T00:07:17;97341.00;;;23.80
11240;BMP180;5677;48.488;13.436;2022-07-01T00:09:44;97339.00;;;23.80
11240;BMP180;5677;48.488;13.436;2022-07-01T00:12:12;97336.00;;;23.80
11240;BMP180;5677;48.488;13.436;2022-07-01T00:14:40;97333.00;;;23.80
11240;BMP180;5677;48.488;13.436;2022-07-01T00:17:08;97329.00;;;23.80
11240;BMP180;5677;48.488;13.436;2022-07-01T00:19:35;97322.00;;;23.80
11240;BMP180;5677;48.488;13.436;2022-07-01T00:22:02;97325.00;;;23.80
11240;BMP180;5677;48.488;13.436;2022-07-01T00:24:29;97314.00;;;23.80
11240;BMP180;5677;48.488;13.436;2022-07-01T00:26:56;97319.00;;;23.80
11240;BMP180;5677;48.488;13.436;2022-07-01T00:29:23;97311.00;;;23.80
11240;BMP180;5677;48.488;13.436;2022-07-01T00:31:51;97321.00;;;23.80
11240;BMP180;5677;48.488;13.436;2022-07-01T00:34:18;97325.00;;;23.80
11240;BMP180;5677;48.488;13.436;2022-07-01T00:36:45;97333.00;;;23.80
11240;BMP180;5677;48.488;13.436;2022-07-01T00:39:12;97340.00;;;23.80
11240;BMP180;5677;48.488;13.436;2022-07-01T00:41:39;97345.00;;;23.80
11240;BMP180;5677;48.488;13.436;2022-07-01T00:44:15;97356.00;;;23.80
11240;BMP180;5677;48.488;13.436;2022-07-01T00:46:42;97357.00;;;23.80
11240;BMP180;5677;48.488;13.436;2022-07-01T00:49:11;97362.00;;;23.80
11240;BMP180;5677;48.488;13.436;2022-07-01T00:51:38;97367.00;;;23.80
11240;BMP180;5677;48.488;13.436;2022-07-01T00:54:05;97382.00;;;23.80
11240;BMP180;5677;48.488;13.436;2022-07-01T00:56:32;97382.00;;;23.80
11240;BMP180;5677;48.488;13.436;2022-07-01T00:58:59;97379.00;;;23.80
11240;BMP180;5677;48.488;13.436;2022-07-01T01:01:26;97386.00;;;23.80
11240;BMP180;5677;48.488;13.436;2022-07-01T01:03:54;97389.00;;;23.80
11240;BMP180;5677;48.488;13.436;2022-07-01T01:06:22;97395.00;;;23.80
11240;BMP180;5677;48.488;13.436;2022-07-01T01:08:49;97397.00;;;23.80
11240;BMP180;5677;48.488;13.436;2022-07-01T01:11:17;97385.00;;;23.80
11240;BMP180;5677;48.488;13.436;2022-07-01T01:13:44;97377.00;;;23.80
11240;BMP180;5677;48.488;13.436;2022-07-01T01:16:17;97379.00;;;23.80
11240;BMP180;5677;48.488;13.436;2022-07-01T01:18:44;97381.00;;;23.80
11240;BMP180;5677;48.488;13.436;2022-07-01T01:21:13;97380.00;;;23.70
11240;BMP180;5677;48.488;13.436;2022-07-01T01:23:40;97374.00;;;23.70
11240;BMP180;5677;48.488;13.436;2022-07-01T01:26:16;97372.00;;;23.70
11240;BMP180;5677;48.488;13.436;2022-07-01T01:28:44;97384.00;;;23.70
11240;BMP180;5677;48.488;13.436;2022-07-01T01:31:11;97387.00;;;23.70
11240;BMP180;5677;48.488;13.436;2022-07-01T01:33:38;97404.00;;;23.70
11240;BMP180;5677;48.488;13.436;2022-07-01T01:36:06;97415.00;;;23.70
11240;BMP180;5677;48.488;13.436;2022-07-01T01:38:36;97426.00;;;23.70
11240;BMP180;5677;48.488;13.436;2022-07-01T01:41:04;97434.00;;;23.70
11240;BMP180;5677;48.488;13.436;2022-07-01T01:43:32;97424.00;;;23.70
11240;BMP180;5677;48.488;13.436;2022-07-01T01:46:01;97414.00;;;23.70
11240;BMP180;5677;48.488;13.436;2022-07-01T01:48:28;97422.00;;;23.70
11240;BMP180;5677;48.488;13.436;2022-07-01T01:50:56;97427.00;;;23.70
11240;BMP180;5677;48.488;13.436;2022-07-01T01:53:23;97428.00;;;23.70
11240;BMP180;5677;48.488;13.436;2022-07-01T01:55:51;97434.00;;;23.70
11240;BMP180;5677;48.488;13.436;2022-07-01T01:58:19;97437.00;;;23.70
11240;BMP180;5677;48.488;13.436;2022-07-01T02:00:46;97429.00;;;23.70
11240;BMP180;5677;48.488;13.436;2022-07-01T02:03:13;97424.00;;;23.70
11240;BMP180;5677;48.488;13.436;2022-07-01T02:05:40;97424.00;;;23.70
11240;BMP180;5677;48.488;13.436;2022-07-01T02:08:07;97412.00;;;23.70
11240;BMP180;5677;48.488;13.436;2022-07-01T02:10:34;97407.00;;;23.70
11240;BMP180;5677;48.488;13.436;2022-07-01T02:13:02;97412.00;;;23.70
11240;BMP180;5677;48.488;13.436;2022-07-01T02:15:29;97418.00;;;23.70
11240;BMP180;5677;48.488;13.436;2022-07-01T02:17:57;97412.00;;;23.70
11240;BMP180;5677;48.488;13.436;2022-07-01T02:20:24;97417.00;;;23.70
11240;BMP180;5677;48.488;13.436;2022-07-01T02:22:51;97422.00;;;23.70
11240;BMP180;5677;48.488;13.436;2022-07-01T02:25:19;97423.00;;;23.70
11240;BMP180;5677;48.488;13.436;2022-07-01T02:27:46;97431.00;;;23.70
11240;BMP180;5677;48.488;13.436;2022-07-01T02:30:15;97439.00;;;23.70
11240;BMP180;5677;48.488;13.436;2022-07-01T02:32:42;97442.00;;;23.70
11240;BMP180;5677;48.488;13.436;2022-07-01T02:35:09;97441.00;;;23.70
11240;BMP180;5677;48.488;13.436;2022-07-01T02:37:37;97449.00;;;23.70
11240;BMP180;5677;48.488;13.436;2022-07-01T02:40:05;97453.00;;;23.70
11240;BMP180;5677;48.488;13.436;2022-07-01T02:42:32;97435.00;;;23.70
11240;BMP180;5677;48.488;13.436;2022-07-01T02:45:03;97452.00;;;23.70
11240;BMP180;5677;48.488;13.436;2022-07-01T02:47:34;97457.00;;;23.60
11240;BMP180;5677;48.488;13.436;2022-07-01T02:50:01;97459.00;;;23.60
11240;BMP180;5677;48.488;13.436;2022-07-01T02:52:28;97471.00;;;23.60
11240;BMP180;5677;48.488;13.436;2022-07-01T02:54:55;97472.00;;;23.60
11240;BMP180;5677;48.488;13.436;2022-07-01T02:57:22;97473.00;;;23.60
11240;BMP180;5677;48.488;13.436;2022-07-01T02:59:49;97482.00;;;23.60
11240;BMP180;5677;48.488;13.436;2022-07-01T03:02:17;97498.00;;;23.60
11240;BMP180;5677;48.488;13.436;2022-07-01T03:04:46;97518.00;;;23.60
11240;BMP180;5677;48.488;13.436;2022-07-01T03:07:14;97525.00;;;23.60
11240;BMP180;5677;48.488;13.436;2022-07-01T03:09:41;97526.00;;;23.60
11240;BMP180;5677;48.488;13.436;2022-07-01T03:12:10;97528.00;;;23.60
11240;BMP180;5677;48.488;13.436;2022-07-01T03:14:54;97524.00;;;23.60
11240;BMP180;5677;48.488;13.436;2022-07-01T03:17:22;97516.00;;;23.60
11240;BMP180;5677;48.488;13.436;2022-07-01T03:19:51;97531.00;;;23.60
11240;BMP180;5677;48.488;13.436;2022-07-01T03:22:20;97534.00;;;23.60
11240;BMP180;5677;48.488;13.436;2022-07-01T03:24:48;97543.00;;;23.60
11240;BMP180;5677;48.488;13.436;2022-07-01T03:27:16;97549.00;;;23.60
11240;BMP180;5677;48.488;13.436;2022-07-01T03:29:43;97543.00;;;23.60
11240;BMP180;5677;48.488;13.436;2022-07-01T03:32:11;97546.00;;;23.60
11240;BMP180;5677;48.488;13.436;2022-07-01T03:34:40;97549.00;;;23.60
11240;BMP180;5677;48.488;13.436;2022-07-01T03:37:11;97558.00;;;23.60
11240;BMP180;5677;48.488;13.436;2022-07-01T03:39:39;97554.00;;;23.60
11240;BMP180;5677;48.488;13.436;2022-07-01T03:42:07;97566.00;;;23.60
11240;BMP180;5677;48.488;13.436;2022-07-01T03:44:35;97571.00;;;23.60
11240;BMP180;5677;48.488;13.436;2022-07-01T03:47:03;97570.00;;;23.60
11240;BMP180;5677;48.488;13.436;2022-07-01T03:49:31;97574.00;;;23.60
11240;BMP180;5677;48.488;13.436;2022-07-01T03:51:59;97586.00;;;23.60
11240;BMP180;5677;48.488;13.436;2022-07-01T03:54:27;97587.00;;;23.60
11240;BMP180;5677;48.488;13.436;2022-07-01T03:56:56;97585.00;;;23.60
11240;BMP180;5677;48.488;13.436;2022-07-01T03:59:24;97597.00;;;23.60
11240;BMP180;5677;48.488;13.436;2022-07-01T04:01:51;97594.00;;;23.60
11240;BMP180;5677;48.488;13.436;2022-07-01T04:04:18;97590.00;;;23.60
11240;BMP180;5677;48.488;13.436;2022-07-01T04:06:46;97599.00;;;23.60
11240;BMP180;5677;48.488;13.436;2022-07-01T04:09:16;97605.00;;;23.60
11240;BMP180;5677;48.488;13.436;2022-07-01T04:11:47;97614.00;;;23.60
11240;BMP180;5677;48.488;13.436;2022-07-01T04:14:14;97612.00;;;23.60
11240;BMP180;5677;48.488;13.436;2022-07-01T04:16:46;97615.00;;;23.60
11240;BMP180;5677;48.488;13.436;2022-07-01T04:19:14;97618.00;;;23.60
11240;BMP180;5677;48.488;13.436;2022-07-01T04:21:41;97623.00;;;23.60
11240;BMP180;5677;48.488;13.436;2022-07-01T04:24:34;97629.00;;;23.60
11240;BMP180;5677;48.488;13.436;2022-07-01T04:27:03;97632.00;;;23.60
11240;BMP180;5677;48.488;13.436;2022-07-01T04:29:30;97640.00;;;23.60
11240;BMP180;5677;48.488;13.436;2022-07-01T04:31:57;97634.00;;;23.60
11240;BMP180;5677;48.488;13.436;2022-07-01T04:34:24;97640.00;;;23.60
11240;BMP180;5677;48.488;13.436;2022-07-01T04:36:51;97637.00;;;23.60
11240;BMP180;5677;48.488;13.436;2022-07-01T04:39:18;97636.00;;;23.60
11240;BMP180;5677;48.488;13.436;2022-07-01T04:41:45;97643.00;;;23.60
11240;BMP180;5677;48.488;13.436;2022-07-01T04:44:30;97648.00;;;23.60
11240;BMP180;5677;48.488;13.436;2022-07-01T04:46:59;97646.00;;;23.60
11240;BMP180;5677;48.488;13.436;2022-07-01T04:49:26;97651.00;;;23.60
11240;BMP180;5677;48.488;13.436;2022-07-01T04:51:53;97653.00;;;23.60
11240;BMP180;5677;48.488;13.436;2022-07-01T04:54:21;97663.00;;;23.60
11240;BMP180;5677;48.488;13.436;2022-07-01T04:56:48;97660.00;;;23.50
11240;BMP180;5677;48.488;13.436;2022-07-01T04:59:15;97665.00;;;23.60
11240;BMP180;5677;48.488;13.436;2022-07-01T05:01:45;97668.00;;;23.60
11240;BMP180;5677;48.488;13.436;2022-07-01T05:04:14;97666.00;;;23.60
11240;BMP180;5677;48.488;13.436;2022-07-01T05:06:41;97674.00;;;23.60
11240;BMP180;5677;48.488;13.436;2022-07-01T05:09:08;97668.00;;;23.60
11240;BMP180;5677;48.488;13.436;2022-07-01T05:11:35;97674.00;;;23.50
11240;BMP180;5677;48.488;13.436;2022-07-01T05:14:02;97679.00;;;23.60
11240;BMP180;5677;48.488;13.436;2022-07-01T05:16:29;97678.00;;;23.60
11240;BMP180;5677;48.488;13.436;2022-07-01T05:18:57;97681.00;;;23.50
11240;BMP180;5677;48.488;13.436;2022-07-01T05:21:42;97689.00;;;23.60
11240;BMP180;5677;48.488;13.436;2022-07-01T05:24:30;97685.00;;;23.50
11240;BMP180;5677;48.488;13.436;2022-07-01T05:27:00;97691.00;;;23.60
11240;BMP180;5677;48.488;13.436;2022-07-01T05:29:28;97691.00;;;23.50
11240;BMP180;5677;48.488;13.436;2022-07-01T05:31:55;97703.00;;;23.50
11240;BMP180;5677;48.488;13.436;2022-07-01T05:34:24;97701.00;;;23.50
11240;BMP180;5677;48.488;13.436;2022-07-01T05:36:51;97709.00;;;23.50
11240;BMP180;5677;48.488;13.436;2022-07-01T05:39:18;97710.00;;;23.50
11240;BMP180;5677;48.488;13.436;2022-07-01T05:41:44;97718.00;;;23.50
11240;BMP180;5677;48.488;13.436;2022-07-01T05:44:12;97718.00;;;23.50
11240;BMP180;5677;48.488;13.436;2022-07-01T05:46:39;97724.00;;;23.50
11240;BMP180;5677;48.488;13.436;2022-07-01T05:49:06;97720.00;;;23.50
11240;BMP180;5677;48.488;13.436;2022-07-01T05:51:34;97722.00;;;23.60
11240;BMP180;5677;48.488;13.436;2022-07-01T05:54:01;97719.00;;;23.50
11240;BMP180;5677;48.488;13.436;2022-07-01T05:56:28;97718.00;;;23.50
11240;BMP180;5677;48.488;13.436;2022-07-01T05:58:55;97720.00;;;23.60
11240;BMP180;5677;48.488;13.436;2022-07-01T06:01:22;97718.00;;;23.50
11240;BMP180;5677;48.488;13.436;2022-07-01T06:03:49;97717.00;;;23.60
11240;BMP180;5677;48.488;13.436;2022-07-01T06:06:16;97719.00;;;23.50
11240;BMP180;5677;48.488;13.436;2022-07-01T06:08:46;97710.00;;;23.50
11240;BMP180;5677;48.488;13.436;2022-07-01T06:11:13;97714.00;;;23.50
11240;BMP180;5677;48.488;13.436;2022-07-01T06:13:40;97717.00;;;23.50
11240;BMP180;5677;48.488;13.436;2022-07-01T06:16:07;97709.00;;;23.50
11240;BMP180;5677;48.488;13.436;2022-07-01T06:18:34;97711.00;;;23.50
11240;BMP180;5677;48.488;13.436;2022-07-01T06:21:02;97706.00;;;23.50
11240;BMP180;5677;48.488;13.436;2022-07-01T06:23:30;97703.00;;;23.50
11240;BMP180;5677;48.488;13.436;2022-07-01T06:25:59;97696.00;;;23.50
11240;BMP180;5677;48.488;13.436;2022-07-01T06:28:26;97699.00;;;23.50
11240;BMP180;5677;48.488;13.436;2022-07-01T06:30:56;97706.00;;;23.50
11240;BMP180;5677;48.488;13.436;2022-07-01T06:33:23;97696.00;;;23.50
11240;BMP180;5677;48.488;13.436;2022-07-01T06:35:51;97684.00;;;23.50
11240;BMP180;5677;48.488;13.436;2022-07-01T06:38:18;97678.00;;;23.40
11240;BMP180;5677;48.488;13.436;2022-07-01T06:40:45;97684.00;;;23.30
11240;BMP180;5677;48.488;13.436;2022-07-01T06:43:35;97686.00;;;23.30
11240;BMP180;5677;48.488;13.436;2022-07-01T06:46:02;97682.00;;;23.30
11240;BMP180;5677;48.488;13.436;2022-07-01T06:48:30;97687.00;;;23.30
11240;BMP180;5677;48.488;13.436;2022-07-01T06:50:57;97684.00;;;23.30
11240;BMP180;5677;48.488;13.436;2022-07-01T06:53:24;97685.00;;;23.30
11240;BMP180;5677;48.488;13.436;2022-07-01T06:55:51;97689.00;;;23.30
11240;BMP180;5677;48.488;13.436;2022-07-01T06:58:18;97697.00;;;23.30
11240;BMP180;5677;48.488;13.436;2022-07-01T07:00:46;97699.00;;;23.20
11240;BMP180;5677;48.488;13.436;2022-07-01T07:03:13;97699.00;;;23.20
11240;BMP180;5677;48.488;13.436;2022-07-01T07:05:40;97698.00;;;23.20
11240;BMP180;5677;48.488;13.436;2022-07-01T07:08:07;97704.00;;;23.20
11240;BMP180;5677;48.488;13.436;2022-07-01T07:10:34;97709.00;;;23.20
11240;BMP180;5677;48.488;13.436;2022-07-01T07:13:01;97708.00;;;23.20
11240;BMP180;5677;48.488;13.436;2022-07-01T07:15:28;97711.00;;;23.20
11240;BMP180;5677;48.488;13.436;2022-07-01T07:17:56;97707.00;;;23.20
11240;BMP180;5677;48.488;13.436;2022-07-01T07:20:24;97708.00;;;23.30
11240;BMP180;5677;48.488;13.436;2022-07-01T07:22:51;97712.00;;;23.30
11240;BMP180;5677;48.488;13.436;2022-07-01T07:25:18;97714.00;;;23.30
11240;BMP180;5677;48.488;13.436;2022-07-01T07:27:46;97710.00;;;23.30
11240;BMP180;5677;48.488;13.436;2022-07-01T07:30:13;97712.00;;;23.30
11240;BMP180;5677;48.488;13.436;2022-07-01T07:32:40;97709.00;;;23.30
11240;BMP180;5677;48.488;13.436;2022-07-01T07:35:09;97709.00;;;23.30
11240;BMP180;5677;48.488;13.436;2022-07-01T07:37:37;97705.00;;;23.30
11240;BMP180;5677;48.488;13.436;2022-07-01T07:40:06;97706.00;;;23.30
11240;BMP180;5677;48.488;13.436;2022-07-01T07:42:35;97703.00;;;23.30
11240;BMP180;5677;48.488;13.436;2022-07-01T07:45:03;97702.00;;;23.30
11240;BMP180;5677;48.488;13.436;2022-07-01T07:47:32;97709.00;;;23.30
11240;BMP180;5677;48.488;13.436;2022-07-01T07:49:59;97717.00;;;23.30
11240;BMP180;5677;48.488;13.436;2022-07-01T07:52:28;97719.00;;;23.30
11240;BMP180;5677;48.488;13.436;2022-07-01T07:54:55;97714.00;;;23.30
11240;BMP180;5677;48.488;13.436;2022-07-01T07:57:22;97722.00;;;23.30
11240;BMP180;5677;48.488;13.436;2022-07-01T07:59:49;97730.00;;;23.30
11240;BMP180;5677;48.488;13.436;2022-07-01T08:02:15;97730.00;;;23.30
11240;BMP180;5677;48.488;13.436;2022-07-01T08:04:42;97736.00;;;23.30
11240;BMP180;5677;48.488;13.436;2022-07-01T08:07:09;97731.00;;;23.30
11240;BMP180;5677;48.488;13.436;2022-07-01T08:09:37;97729.00;;;23.30
11240;BMP180;5677;48.488;13.436;2022-07-01T08:12:05;97728.00;;;23.40
11240;BMP180;5677;48.488;13.436;2022-07-01T08:14:32;97726.00;;;23.40
11240;BMP180;5677;48.488;13.436;2022-07-01T08:16:59;97735.00;;;23.40
11240;BMP180;5677;48.488;13.436;2022-07-01T08:19:26;97730.00;;;23.40
11240;BMP180;5677;48.488;13.436;2022-07-01T08:21:53;97737.00;;;23.40
11240;BMP180;5677;48.488;13.436;2022-07-01T08:24:20;97730.00;;;23.40
11240;BMP180;5677;48.488;13.436;2022-07-01T08:26:48;97729.00;;;23.40
11240;BMP180;5677;48.488;13.436;2022-07-01T08:29:15;97728.00;;;23.40
11240;BMP180;5677;48.488;13.436;2022-07-01T08:31:42;97730.00;;;23.40
11240;BMP180;5677;48.488;13.436;2022-07-01T08:34:09;97734.00;;;23.40
11240;BMP180;5677;48.488;13.436;2022-07-01T08:36:36;97730.00;;;23.40
11240;BMP180;5677;48.488;13.436;2022-07-01T08:39:06;97728.00;;;23.40
11240;BMP180;5677;48.488;13.436;2022-07-01T08:41:33;97733.00;;;23.40
11240;BMP180;5677;48.488;13.436;2022-07-01T08:44:01;97734.00;;;23.40
11240;BMP180;5677;48.488;13.436;2022-07-01T08:46:28;97734.00;;;23.40
11240;BMP180;5677;48.488;13.436;2022-07-01T08:48:56;97730.00;;;23.40
11240;BMP180;5677;48.488;13.436;2022-07-01T08:51:22;97725.00;;;23.40
11240;BMP180;5677;48.488;13.436;2022-07-01T08:53:49;97733.00;;;23.40
11240;BMP180;5677;48.488;13.436;2022-07-01T08:56:16;97726.00;;;23.40
11240;BMP180;5677;48.488;13.436;2022-07-01T08:59:25;97728.00;;;23.40
11240;BMP180;5677;48.488;13.436;2022-07-01T09:01:57;97728.00;;;23.40
11240;BMP180;5677;48.488;13.436;2022-07-01T09:04:24;97738.00;;;23.40
11240;BMP180;5677;48.488;13.436;2022-07-01T09:06:51;97738.00;;;23.50
11240;BMP180;5677;48.488;13.436;2022-07-01T09:09:23;97737.00;;;23.40
11240;BMP180;5677;48.488;13.436;2022-07-01T09:11:52;97735.00;;;23.50
11240;BMP180;5677;48.488;13.436;2022-07-01T09:14:23;97729.00;;;23.50
11240;BMP180;5677;48.488;13.436;2022-07-01T09:16:53;97730.00;;;23.50
11240;BMP180;5677;48.488;13.436;2022-07-01T09:19:24;97722.00;;;23.50
11240;BMP180;5677;48.488;13.436;2022-07-01T09:21:52;97722.00;;;23.50
11240;BMP180;5677;48.488;13.436;2022-07-01T09:24:28;97715.00;;;23.50
11240;BMP180;5677;48.488;13.436;2022-07-01T09:26:58;97720.00;;;23.50
11240;BMP180;5677;48.488;13.436;2022-07-01T09:29:30;97728.00;;;23.50
11240;BMP180;5677;48.488;13.436;2022-07-01T09:31:59;97717.00;;;23.50
11240;BMP180;5677;48.488;13.436;2022-07-01T09:34:32;97725.00;;;23.50
11240;BMP180;5677;48.488;13.436;2022-07-01T09:36:59;97727.00;;;23.60
11240;BMP180;5677;48.488;13.436;2022-07-01T09:39:26;97733.00;;;23.60
11240;BMP180;5677;48.488;13.436;2022-07-01T09:41:57;97732.00;;;23.60
11240;BMP180;5677;48.488;13.436;2022-07-01T09:44:24;97719.00;;;23.60
11240;BMP180;5677;48.488;13.436;2022-07-01T09:46:56;97719.00;;;23.60
11240;BMP180;5677;48.488;13.436;2022-07-01T09:49:24;97726.00;;;23.60
11240;BMP180;5677;48.488;13.436;2022-07-01T09:51:52;97731.00;;;23.60
11240;BMP180;5677;48.488;13.436;2022-07-01T09:54:19;97731.00;;;23.60
11240;BMP180;5677;48.488;13.436;2022-07-01T09:56:47;97732.00;;;23.60
11240;BMP180;5677;48.488;13.436;2022-07-01T09:59:14;97735.00;;;23.60
11240;BMP180;5677;48.488;13.436;2022-07-01T10:01:44;97738.00;;;23.60
11240;BMP180;5677;48.488;13.436;2022-07-01T10:04:15;97740.00;;;23.60
11240;BMP180;5677;48.488;13.436;2022-07-01T10:07:13;97740.00;;;23.60
11240;BMP180;5677;48.488;13.436;2022-07-01T10:10:12;97743.00;;;23.60
11240;BMP180;5677;48.488;13.436;2022-07-01T10:12:46;97744.00;;;23.70
11240;BMP180;5677;48.488;13.436;2022-07-01T10:15:18;97750.00;;;23.60
11240;BMP180;5677;48.488;13.436;2022-07-01T10:17:49;97748.00;;;23.60
11240;BMP180;5677;48.488;13.436;2022-07-01T10:20:23;97754.00;;;23.60
11240;BMP180;5677;48.488;13.436;2022-07-01T10:23:00;97762.00;;;23.60
11240;BMP180;5677;48.488;13.436;2022-07-01T10:25:41;97765.00;;;23.60
11240;BMP180;5677;48.488;13.436;2022-07-01T10:28:24;97762.00;;;23.60
11240;BMP180;5677;48.488;13.436;2022-07-01T10:31:02;97765.00;;;23.60
11240;BMP180;5677;48.488;13.436;2022-07-01T10:33:49;97761.00;;;23.60
11240;BMP180;5677;48.488;13.436;2022-07-01T10:36:26;97769.00;;;23.60
11240;BMP180;5677;48.488;13.436;2022-07-01T10:39:16;97770.00;;;23.60
11240;BMP180;5677;48.488;13.436;2022-07-01T10:42:03;97769.00;;;23.70
11240;BMP180;5677;48.488;13.436;2022-07-01T10:44:31;97768.00;;;23.70
11240;BMP180;5677;48.488;13.436;2022-07-01T10:47:05;97768.00;;;23.70
11240;BMP180;5677;48.488;13.436;2022-07-01T10:49:54;97765.00;;;23.70
11240;BMP180;5677;48.488;13.436;2022-07-01T10:52:23;97758.00;;;23.70
11240;BMP180;5677;48.488;13.436;2022-07-01T10:54:53;97767.00;;;23.70
11240;BMP180;5677;48.488;13.436;2022-07-01T10:57:31;97756.00;;;23.70
11240;BMP180;5677;48.488;13.436;2022-07-01T11:00:29;97758.00;;;23.70
11240;BMP180;5677;48.488;13.436;2022-07-01T11:03:20;97760.00;;;23.70
11240;BMP180;5677;48.488;13.436;2022-07-01T11:05:54;97760.00;;;23.70
11240;BMP180;5677;48.488;13.436;2022-07-01T11:08:23;97761.00;;;23.70
11240;BMP180;5677;48.488;13.436;2022-07-01T11:10:55;97756.00;;;23.70
11240;BMP180;5677;48.488;13.436;2022-07-01T11:13:22;97759.00;;;23.70
11240;BMP180;5677;48.488;13.436;2022-07-01T11:15:49;97762.00;;;23.70
11240;BMP180;5677;48.488;13.436;2022-07-01T11:18:18;97766.00;;;23.70
11240;BMP180;5677;48.488;13.436;2022-07-01T11:20:45;97773.00;;;23.70
11240;BMP180;5677;48.488;13.436;2022-07-01T11:23:13;97775.00;;;23.70
11240;BMP180;5677;48.488;13.436;2022-07-01T11:25:43;97777.00;;;23.70
11240;BMP180;5677;48.488;13.436;2022-07-01T11:28:11;97782.00;;;23.70
11240;BMP180;5677;48.488;13.436;2022-07-01T11:30:39;97770.00;;;23.70
11240;BMP180;5677;48.488;13.436;2022-07-01T11:33:08;97777.00;;;23.70
11240;BMP180;5677;48.488;13.436;2022-07-01T11:35:36;97770.00;;;23.70
11240;BMP180;5677;48.488;13.436;2022-07-01T11:38:23;97765.00;;;23.70
11240;BMP180;5677;48.488;13.436;2022-07-01T11:41:18;97772.00;;;23.70
11240;BMP180;5677;48.488;13.436;2022-07-01T11:43:45;97769.00;;;23.80
11240;BMP180;5677;48.488;13.436;2022-07-01T11:46:12;97781.00;;;23.80
11240;BMP180;5677;48.488;13.436;2022-07-01T11:48:46;97782.00;;;23.80
11240;BMP180;5677;48.488;13.436;2022-07-01T11:51:18;97783.00;;;23.80
11240;BMP180;5677;48.488;13.436;2022-07-01T11:53:48;97788.00;;;23.80
11240;BMP180;5677;48.488;13.436;2022-07-01T11:56:28;97789.00;;;23.80
11240;BMP180;5677;48.488;13.436;2022-07-01T11:58:56;97784.00;;;23.80
11240;BMP180;5677;48.488;13.436;2022-07-01T12:01:28;97791.00;;;23.80
11240;BMP180;5677;48.488;13.436;2022-07-01T12:03:59;97794.00;;;23.80
11240;BMP180;5677;48.488;13.436;2022-07-01T12:06:28;97796.00;;;23.80
11240;BMP180;5677;48.488;13.436;2022-07-01T12:08:56;97795.00;;;23.80
11240;BMP180;5677;48.488;13.436;2022-07-01T12:11:27;97789.00;;;23.80
11240;BMP180;5677;48.488;13.436;2022-07-01T12:13:55;97787.00;;;23.80
11240;BMP180;5677;48.488;13.436;2022-07-01T12:16:25;97798.00;;;23.80
11240;BMP180;5677;48.488;13.436;2022-07-01T12:18:58;97787.00;;;23.80
11240;BMP180;5677;48.488;13.436;2022-07-01T12:21:28;97802.00;;;23.80
11240;BMP180;5677;48.488;13.436;2022-07-01T12:24:04;97811.00;;;23.80
11240;BMP180;5677;48.488;13.436;2022-07-01T12:26:33;97808.00;;;23.80
11240;BMP180;5677;48.488;13.436;2022-07-01T12:29:01;97811.00;;;23.80
11240;BMP180;5677;48.488;13.436;2022-07-01T12:31:28;97811.00;;;23.80
11240;BMP180;5677;48.488;13.436;2022-07-01T12:33:54;97819.00;;;23.80
11240;BMP180;5677;48.488;13.436;2022-07-01T12:36:21;97809.00;;;23.80
11240;BMP180;5677;48.488;13.436;2022-07-01T12:39:02;97814.00;;;23.80
11240;BMP180;5677;48.488;13.436;2022-07-01T12:41:33;97829.00;;;23.80
11240;BMP180;5677;48.488;13.436;2022-07-01T12:44:01;97824.00;;;23.80
11240;BMP180;5677;48.488;13.436;2022-07-01T12:46:32;97834.00;;;23.80
11240;BMP180;5677;48.488;13.436;2022-07-01T12:48:59;97834.00;;;23.80
11240;BMP180;5677;48.488;13.436;2022-07-01T12:51:31;97836.00;;;23.80
11240;BMP180;5677;48.488;13.436;2022-07-01T12:53:59;97845.00;;;23.80
11240;BMP180;5677;48.488;13.436;2022-07-01T12:56:29;97854.00;;;23.80
11240;BMP180;5677;48.488;13.436;2022-07-01T12:58:57;97844.00;;;23.80
11240;BMP180;5677;48.488;13.436;2022-07-01T13:01:24;97843.00;;;23.80
11240;BMP180;5677;48.488;13.436;2022-07-01T13:03:51;97848.00;;;23.80
11240;BMP180;5677;48.488;13.436;2022-07-01T13:06:18;97854.00;;;23.80
11240;BMP180;5677;48.488;13.436;2022-07-01T13:08:45;97854.00;;;23.80
11240;BMP180;5677;48.488;13.436;2022-07-01T13:11:12;97861.00;;;23.80
11240;BMP180;5677;48.488;13.436;2022-07-01T13:13:39;97858.00;;;23.80
11240;BMP180;5677;48.488;13.436;2022-07-01T13:16:07;97865.00;;;23.80
11240;BMP180;5677;48.488;13.436;2022-07-01T13:18:34;97876.00;;;23.80
11240;BMP180;5677;48.488;13.436;2022-07-01T13:21:01;97882.00;;;23.80
11240;BMP180;5677;48.488;13.436;2022-07-01T13:23:30;97874.00;;;23.80
11240;BMP180;5677;48.488;13.436;2022-07-01T13:25:57;97880.00;;;23.80
11240;BMP180;5677;48.488;13.436;2022-07-01T13:28:23;97890.00;;;23.80
11240;BMP180;5677;48.488;13.436;2022-07-01T13:30:50;97897.00;;;23.80
11240;BMP180;5677;48.488;13.436;2022-07-01T13:33:19;97907.00;;;23.80
11240;BMP180;5677;48.488;13.436;2022-07-01T13:35:46;97908.00;;;23.80
11240;BMP180;5677;48.488;13.436;2022-07-01T13:38:13;97908.00;;;23.80
11240;BMP180;5677;48.488;13.436;2022-07-01T13:40:40;97913.00;;;23.80
11240;BMP180;5677;48.488;13.436;2022-07-01T13:43:07;97917.00;;;23.80
11240;BMP180;5677;48.488;13.436;2022-07-01T13:45:35;97935.00;;;23.80
11240;BMP180;5677;48.488;13.436;2022-07-01T13:48:02;97937.00;;;23.80
11240;BMP180;5677;48.488;13.436;2022-07-01T13:50:31;97948.00;;;23.80
11240;BMP180;5677;48.488;13.436;2022-07-01T13:52:58;97953.00;;;23.80
11240;BMP180;5677;48.488;13.436;2022-07-01T13:55:26;97957.00;;;23.70
11240;BMP180;5677;48.488;13.436;2022-07-01T13:57:53;97964.00;;;23.70
11240;BMP180;5677;48.488;13.436;2022-07-01T14:00:20;97985.00;;;23.80
11240;BMP180;5677;48.488;13.436;2022-07-01T14:02:47;97994.00;;;23.70
11240;BMP180;5677;48.488;13.436;2022-07-01T14:05:14;97991.00;;;23.70
11240;BMP180;5677;48.488;13.436;2022-07-01T14:07:43;98000.00;;;23.70
11240;BMP180;5677;48.488;13.436;2022-07-01T14:10:11;98001.00;;;23.70
11240;BMP180;5677;48.488;13.436;2022-07-01T14:12:39;98008.00;;;23.70
11240;BMP180;5677;48.488;13.436;2022-07-01T14:15:07;98013.00;;;23.70
11240;BMP180;5677;48.488;13.436;2022-07-01T14:17:37;98021.00;;;23.70
11240;BMP180;5677;48.488;13.436;2022-07-01T14:20:06;98017.00;;;23.70
11240;BMP180;5677;48.488;13.436;2022-07-01T14:22:33;98023.00;;;23.70